Time;durP1;ratioP1;P1;durP2;ratioP2;P2;SDS_P1;SDS_P2;PMS_P1;PMS_P2;Temp;Humidity;BMP_temperature;BMP_pressure;BME280_temperature;BME280_humidity;BME280_pressure;Samples;Min_cycle;Max_cycle;Signal;HPM_P1;HPM_P2
2021/08/19 00:01:22;;;;;;;11.83;7.90;;;17.40;99.90;;;;;;6273928;22;20303;-67
2021/08/19 00:03:47;;;;;;;12.30;7.87;;;17.40;99.90;;;;;;6274538;22;20156;-67
2021/08/19 00:06:13;;;;;;;12.47;8.00;;;17.40;99.90;;;;;;6274046;22;20487;-67
2021/08/19 00:08:40;;;;;;;11.60;7.90;;;17.30;99.90;;;;;;6273555;22;20192;-67
2021/08/19 00:11:06;;;;;;;8.90;7.23;;;17.40;99.90;;;;;;6272940;22;20181;-67
2021/08/19 00:13:32;;;;;;;10.50;7.87;;;17.30;99.90;;;;;;6274001;22;20556;-66
2021/08/19 00:15:57;;;;;;;9.13;7.07;;;17.40;99.90;;;;;;6273744;22;20237;-67
2021/08/19 00:18:23;;;;;;;11.73;7.80;;;17.40;99.90;;;;;;6273868;22;20549;-67
2021/08/19 00:20:49;;;;;;;11.23;7.83;;;17.50;99.90;;;;;;6273820;22;20601;-66
2021/08/19 00:23:15;;;;;;;9.67;7.60;;;17.40;99.90;;;;;;6274130;22;20221;-67
2021/08/19 00:25:40;;;;;;;11.33;8.33;;;17.50;99.90;;;;;;6274038;22;20501;-66
2021/08/19 00:28:06;;;;;;;10.90;7.77;;;17.50;99.90;;;;;;6273864;22;20178;-66
2021/08/19 00:30:32;;;;;;;11.10;8.00;;;17.50;99.90;;;;;;6273644;22;20184;-66
2021/08/19 00:32:57;;;;;;;9.90;7.73;;;17.50;99.90;;;;;;6273680;22;20546;-66
2021/08/19 00:35:23;;;;;;;11.17;7.87;;;17.40;99.90;;;;;;6273728;22;20178;-67
2021/08/19 00:37:48;;;;;;;10.87;7.30;;;17.40;99.90;;;;;;6273618;22;20142;-67
2021/08/19 00:40:14;;;;;;;11.80;7.40;;;17.40;99.90;;;;;;6273553;22;20149;-66
2021/08/19 00:42:40;;;;;;;10.17;7.50;;;17.40;99.90;;;;;;6273186;22;20245;-67
2021/08/19 00:45:10;;;;;;;9.77;7.70;;;17.40;99.90;;;;;;6273721;22;20173;-66
2021/08/19 00:47:38;;;;;;;8.10;6.90;;;17.30;99.90;;;;;;6273513;22;20150;-67
2021/08/19 00:50:05;;;;;;;9.43;7.50;;;17.30;99.90;;;;;;6273349;22;20154;-67
2021/08/19 00:52:31;;;;;;;12.57;7.57;;;17.30;99.90;;;;;;6273294;22;20220;-66
2021/08/19 00:54:58;;;;;;;10.57;7.60;;;17.40;99.90;;;;;;6273677;22;20178;-66
2021/08/19 00:57:24;;;;;;;10.90;7.93;;;17.30;99.90;;;;;;6273493;22;20735;-66
2021/08/19 00:59:52;;;;;;;12.17;8.00;;;17.40;99.90;;;;;;6273636;22;20148;-66
2021/08/19 01:02:19;;;;;;;10.67;8.00;;;17.40;99.90;;;;;;6273316;22;20162;-66
2021/08/19 01:04:45;;;;;;;10.93;7.73;;;17.40;99.90;;;;;;6273663;22;20146;-67
2021/08/19 01:07:11;;;;;;;9.87;7.10;;;17.40;99.90;;;;;;6273697;22;20168;-66
2021/08/19 01:09:37;;;;;;;9.97;7.30;;;17.40;99.90;;;;;;6273061;22;20142;-66
2021/08/19 01:12:08;;;;;;;9.40;6.93;;;17.40;99.90;;;;;;6273420;22;20195;-67
2021/08/19 01:14:34;;;;;;;8.80;7.17;;;17.50;99.90;;;;;;6273471;22;20139;-66
2021/08/19 01:17:06;;;;;;;9.97;7.13;;;17.40;99.90;;;;;;6273477;22;20248;-66
2021/08/19 01:19:32;;;;;;;9.60;6.90;;;17.40;99.90;;;;;;6273262;22;20127;-66
2021/08/19 01:21:58;;;;;;;12.50;7.43;;;17.40;99.90;;;;;;6273482;22;20169;-67
2021/08/19 01:24:23;;;;;;;11.20;7.20;;;17.50;99.90;;;;;;6273771;22;20241;-66
2021/08/19 01:26:49;;;;;;;12.40;7.00;;;17.40;99.90;;;;;;6246306;22;20162;-66
2021/08/19 01:29:16;;;;;;;10.10;7.00;;;17.40;99.90;;;;;;6273233;22;20157;-66
2021/08/19 01:31:59;;;;;;;11.60;7.00;;;17.40;99.90;;;;;;6273392;22;20173;-65
2021/08/19 01:34:26;;;;;;;12.47;7.10;;;17.40;99.90;;;;;;6273425;22;20145;-66
2021/08/19 01:36:51;;;;;;;11.70;7.23;;;17.40;99.90;;;;;;6273333;22;20189;-67
2021/08/19 01:39:17;;;;;;;13.20;7.43;;;17.60;99.90;;;;;;6273122;22;20225;-67
2021/08/19 01:41:42;;;;;;;8.73;6.83;;;17.50;99.90;;;;;;6273405;22;20216;-65
2021/08/19 01:44:08;;;;;;;10.93;7.87;;;17.40;99.90;;;;;;6273224;22;20142;-66
2021/08/19 01:46:33;;;;;;;10.87;7.50;;;17.40;99.90;;;;;;6273416;22;20151;-66
2021/08/19 01:49:02;;;;;;;8.97;7.20;;;17.40;99.90;;;;;;6273127;22;20150;-66
2021/08/19 01:51:27;;;;;;;13.47;7.53;;;17.40;99.90;;;;;;6273246;22;20182;-66
2021/08/19 01:53:53;;;;;;;10.33;6.90;;;17.30;99.90;;;;;;6273960;22;20169;-67
2021/08/19 01:56:20;;;;;;;11.07;7.13;;;17.30;99.90;;;;;;6248133;22;20260;-66
2021/08/19 01:58:47;;;;;;;9.30;6.83;;;17.30;99.90;;;;;;6275022;22;20150;-67
2021/08/19 02:01:18;;;;;;;10.83;7.50;;;17.30;99.90;;;;;;6275292;22;20501;-66
2021/08/19 02:03:44;;;;;;;8.93;6.83;;;17.30;99.90;;;;;;6275672;22;20225;-66
2021/08/19 02:06:09;;;;;;;13.47;7.30;;;17.40;99.90;;;;;;6275127;22;20181;-67
2021/08/19 02:08:35;;;;;;;10.47;7.30;;;16.80;99.90;;;;;;6274942;22;20476;-67
2021/08/19 02:11:00;;;;;;;11.30;7.77;;;17.30;99.90;;;;;;6274919;22;20197;-67
2021/08/19 02:13:26;;;;;;;9.20;7.20;;;17.30;99.90;;;;;;6275202;22;20204;-66
2021/08/19 02:15:51;;;;;;;11.03;6.97;;;17.30;99.90;;;;;;6275294;22;20193;-66
2021/08/19 02:18:17;;;;;;;11.03;7.30;;;17.40;99.90;;;;;;6275105;22;20151;-65
2021/08/19 02:20:43;;;;;;;10.83;7.93;;;17.40;99.90;;;;;;6274456;22;20230;-66
2021/08/19 02:23:08;;;;;;;11.57;7.67;;;17.50;99.90;;;;;;6275463;22;20156;-67
2021/08/19 02:25:34;;;;;;;11.53;8.40;;;17.40;99.90;;;;;;6274920;22;20596;-67
2021/08/19 02:27:59;;;;;;;10.03;7.63;;;17.30;99.90;;;;;;6247894;22;20209;-67
2021/08/19 02:30:25;;;;;;;12.27;7.07;;;17.30;99.90;;;;;;6274766;22;20196;-67
2021/08/19 02:32:55;;;;;;;9.37;7.23;;;17.20;99.90;;;;;;6274957;22;20244;-67
2021/08/19 02:35:21;;;;;;;10.53;7.60;;;16.90;99.90;;;;;;6275283;22;20174;-67
2021/08/19 02:37:47;;;;;;;10.97;7.63;;;16.80;99.90;;;;;;6274975;22;20154;-67
2021/08/19 02:40:13;;;;;;;11.83;8.67;;;16.90;99.90;;;;;;6274992;22;20492;-66
2021/08/19 02:42:38;;;;;;;11.27;8.40;;;16.80;99.90;;;;;;6275055;22;20166;-66
2021/08/19 02:45:05;;;;;;;11.27;8.30;;;16.60;99.90;;;;;;6275312;22;20150;-67
2021/08/19 02:47:31;;;;;;;12.20;8.00;;;16.70;99.90;;;;;;6275227;22;20147;-67
2021/08/19 02:49:56;;;;;;;8.63;6.83;;;16.70;99.90;;;;;;6274745;22;20212;-67
2021/08/19 02:52:23;;;;;;;10.63;7.80;;;16.80;99.90;;;;;;6275096;22;20186;-67
2021/08/19 02:54:49;;;;;;;9.00;7.10;;;17.10;99.90;;;;;;6275402;22;20164;-67
2021/08/19 02:57:15;;;;;;;10.10;7.97;;;17.10;99.90;;;;;;6275041;22;20589;-68
2021/08/19 02:59:40;;;;;;;11.13;7.83;;;17.20;99.90;;;;;;6274701;22;20668;-67
2021/08/19 03:02:06;;;;;;;13.57;9.03;;;17.20;99.90;;;;;;6274959;22;20167;-66
2021/08/19 03:04:31;;;;;;;11.43;8.80;;;17.20;99.90;;;;;;6275033;22;20156;-66
2021/08/19 03:06:57;;;;;;;12.20;8.70;;;17.20;99.90;;;;;;6275111;22;20157;-67
2021/08/19 03:09:22;;;;;;;11.70;8.83;;;17.20;99.90;;;;;;6274668;22;20215;-67
2021/08/19 03:11:48;;;;;;;11.90;8.53;;;17.60;99.90;;;;;;6274996;22;20174;-66
2021/08/19 03:14:14;;;;;;;12.03;8.50;;;17.20;99.90;;;;;;6274796;22;20153;-66
2021/08/19 03:16:39;;;;;;;11.80;8.77;;;17.30;99.90;;;;;;6274925;22;20252;-66
2021/08/19 03:19:05;;;;;;;11.77;8.40;;;17.40;99.90;;;;;;6274659;22;20150;-66
2021/08/19 03:21:30;;;;;;;9.83;7.50;;;17.30;99.90;;;;;;6274922;22;20194;-67
2021/08/19 03:23:58;;;;;;;12.60;8.37;;;17.30;99.90;;;;;;6274844;22;20149;-66
2021/08/19 03:26:24;;;;;;;10.07;7.63;;;17.30;99.90;;;;;;6275189;22;20149;-67
2021/08/19 03:28:50;;;;;;;12.03;7.50;;;17.30;99.90;;;;;;6274643;22;20161;-67
2021/08/19 03:31:15;;;;;;;11.10;7.67;;;17.30;99.90;;;;;;6275089;22;20174;-67
2021/08/19 03:33:42;;;;;;;11.97;7.73;;;17.30;99.90;;;;;;6274577;22;20416;-66
2021/08/19 03:36:08;;;;;;;10.33;7.57;;;17.30;99.90;;;;;;6274623;22;20170;-67
2021/08/19 03:38:34;;;;;;;11.07;7.83;;;17.30;99.90;;;;;;6274332;22;20149;-67
2021/08/19 03:40:59;;;;;;;9.30;7.40;;;17.30;99.90;;;;;;6274865;22;20181;-66
2021/08/19 03:43:25;;;;;;;10.13;7.73;;;17.30;99.90;;;;;;6274563;22;20528;-66
2021/08/19 03:45:50;;;;;;;10.63;7.97;;;17.30;99.90;;;;;;6274668;22;20601;-65
2021/08/19 03:48:17;;;;;;;11.93;8.70;;;17.30;99.90;;;;;;6274570;22;20154;-66
2021/08/19 03:50:43;;;;;;;13.33;9.70;;;17.20;99.90;;;;;;6274325;22;20178;-66
2021/08/19 03:53:09;;;;;;;10.47;8.40;;;17.20;99.90;;;;;;6276005;22;20201;-58
2021/08/19 03:55:35;;;;;;;12.47;9.43;;;17.00;99.90;;;;;;6274042;22;20170;-58
2021/08/19 03:58:01;;;;;;;13.43;8.83;;;17.10;99.90;;;;;;6274164;22;20225;-58
2021/08/19 04:00:26;;;;;;;11.50;8.60;;;17.20;99.90;;;;;;6273178;22;20624;-58
2021/08/19 04:02:52;;;;;;;13.13;8.53;;;16.90;99.90;;;;;;6258326;22;20241;-56
2021/08/19 04:05:17;;;;;;;10.93;8.57;;;17.10;99.90;;;;;;6242964;23;20641;-56
2021/08/19 04:07:43;;;;;;;12.10;8.33;;;17.20;99.90;;;;;;6243170;23;20198;-55
2021/08/19 04:10:09;;;;;;;9.83;7.47;;;17.30;99.90;;;;;;6242360;23;20225;-57
2021/08/19 04:12:35;;;;;;;11.97;8.67;;;17.30;99.90;;;;;;6242967;22;20187;-56
2021/08/19 04:15:02;;;;;;;13.00;9.30;;;17.20;99.90;;;;;;6242756;23;20682;-57
2021/08/19 04:17:28;;;;;;;13.87;9.63;;;17.20;99.90;;;;;;6242928;23;20155;-57
2021/08/19 04:19:54;;;;;;;12.57;8.93;;;17.20;99.90;;;;;;6241928;23;20609;-52
2021/08/19 04:22:20;;;;;;;14.10;9.73;;;17.20;99.90;;;;;;6242878;22;20162;-58
2021/08/19 04:24:45;;;;;;;13.43;9.00;;;17.10;99.90;;;;;;6243283;23;20153;-54
2021/08/19 04:27:11;;;;;;;10.70;8.40;;;17.20;99.90;;;;;;6242664;23;20217;-57
2021/08/19 04:29:36;;;;;;;11.10;7.93;;;17.20;99.90;;;;;;6242067;23;20621;-54
2021/08/19 04:32:04;;;;;;;11.23;8.40;;;17.20;99.90;;;;;;6242763;22;20167;-53
2021/08/19 04:34:29;;;;;;;12.93;8.70;;;17.10;99.90;;;;;;6242850;23;20229;-55
2021/08/19 04:36:55;;;;;;;11.00;8.27;;;17.10;99.90;;;;;;6242740;23;20205;-57
2021/08/19 04:39:21;;;;;;;11.03;7.80;;;17.10;99.90;;;;;;6241770;23;20238;-58
2021/08/19 04:41:46;;;;;;;12.73;7.80;;;17.20;99.90;;;;;;6242649;22;20177;-56
2021/08/19 04:44:12;;;;;;;10.07;7.97;;;17.30;99.90;;;;;;6242724;23;20600;-58
2021/08/19 04:46:37;;;;;;;10.80;8.00;;;17.20;99.90;;;;;;6242712;23;20273;-56
2021/08/19 04:49:05;;;;;;;11.47;7.63;;;17.20;99.90;;;;;;6241829;23;20482;-56
2021/08/19 04:51:35;;;;;;;11.63;8.33;;;17.20;99.90;;;;;;6242865;23;20158;-59
2021/08/19 04:54:01;;;;;;;9.47;7.17;;;17.20;99.90;;;;;;6242491;22;20232;-56
2021/08/19 04:56:29;;;;;;;12.10;8.47;;;17.20;99.90;;;;;;6242405;23;20643;-55
2021/08/19 04:58:56;;;;;;;11.83;8.83;;;17.20;99.90;;;;;;6242020;23;20397;-53
2021/08/19 05:01:21;;;;;;;10.40;8.03;;;17.20;99.90;;;;;;6242737;23;20212;-58
2021/08/19 05:03:47;;;;;;;10.93;8.13;;;17.10;99.90;;;;;;6242385;22;20170;-56
2021/08/19 05:06:12;;;;;;;11.50;8.27;;;17.10;99.90;;;;;;6242539;23;20150;-57
2021/08/19 05:08:38;;;;;;;10.97;8.00;;;16.80;99.90;;;;;;6241562;23;20162;-57
2021/08/19 05:11:03;;;;;;;10.90;7.33;;;16.80;99.90;;;;;;6242489;23;20493;-55
2021/08/19 05:13:31;;;;;;;11.03;8.80;;;16.60;99.90;;;;;;6242266;22;20166;-57
2021/08/19 05:15:57;;;;;;;11.57;8.57;;;16.50;99.90;;;;;;6242800;23;20249;-55
2021/08/19 05:18:22;;;;;;;12.13;8.10;;;16.50;99.90;;;;;;6242213;23;20181;-57
2021/08/19 05:20:48;;;;;;;12.20;8.13;;;16.70;99.90;;;;;;6242516;23;20234;-57
2021/08/19 05:23:13;;;;;;;11.37;8.37;;;16.80;99.90;;;;;;6242220;22;20234;-57
2021/08/19 05:25:39;;;;;;;10.80;8.13;;;16.70;99.90;;;;;;6242819;23;20482;-55
2021/08/19 05:28:04;;;;;;;12.03;8.30;;;16.60;99.90;;;;;;6243769;23;20514;-55
2021/08/19 05:30:30;;;;;;;11.40;8.33;;;16.70;99.90;;;;;;6243695;23;20226;-56
2021/08/19 05:32:56;;;;;;;9.10;7.37;;;16.60;99.90;;;;;;6244294;22;20257;-57
2021/08/19 05:35:21;;;;;;;13.27;10.03;;;16.90;99.90;;;;;;6244316;23;20252;-55
2021/08/19 05:37:47;;;;;;;13.67;8.77;;;16.70;99.90;;;;;;6244425;23;20147;-56
2021/08/19 05:40:12;;;;;;;12.87;9.60;;;16.80;99.90;;;;;;6243947;23;20151;-55
2021/08/19 05:42:38;;;;;;;13.90;8.77;;;16.80;99.90;;;;;;6244309;22;20194;-55
2021/08/19 05:45:04;;;;;;;12.57;9.23;;;16.90;99.90;;;;;;6244256;23;20613;-57
2021/08/19 05:47:30;;;;;;;11.17;8.43;;;16.90;99.90;;;;;;6244232;23;20164;-57
2021/08/19 05:49:56;;;;;;;10.77;8.60;;;16.90;99.90;;;;;;6243743;23;20532;-52
2021/08/19 05:52:21;;;;;;;12.97;8.93;;;16.80;99.90;;;;;;6244133;22;20574;-58
2021/08/19 05:54:47;;;;;;;12.23;8.43;;;16.80;99.90;;;;;;6244179;23;20149;-57
2021/08/19 05:57:13;;;;;;;16.17;9.63;;;16.90;99.90;;;;;;6244178;23;20753;-57
2021/08/19 05:59:39;;;;;;;11.50;8.73;;;16.70;99.90;;;;;;6243445;23;20233;-58
2021/08/19 06:02:06;;;;;;;12.23;8.83;;;16.80;99.90;;;;;;6244423;22;20254;-57
2021/08/19 06:04:32;;;;;;;14.80;10.20;;;16.90;99.90;;;;;;6244093;23;20679;-58
2021/08/19 06:06:58;;;;;;;11.57;9.13;;;16.90;99.90;;;;;;6244151;23;20159;-53
2021/08/19 06:09:24;;;;;;;14.00;10.20;;;16.90;99.90;;;;;;6243107;23;20204;-58
2021/08/19 06:11:49;;;;;;;13.53;10.03;;;17.00;99.90;;;;;;6243931;22;20151;-58
2021/08/19 06:14:15;;;;;;;14.67;10.17;;;17.10;99.90;;;;;;6242623;23;20158;-58
2021/08/19 06:16:40;;;;;;;13.30;9.93;;;17.00;99.90;;;;;;6243977;23;20228;-56
2021/08/19 06:19:06;;;;;;;12.67;9.73;;;17.10;99.90;;;;;;6243480;23;20143;-56
2021/08/19 06:21:31;;;;;;;11.70;8.63;;;17.20;99.90;;;;;;6244187;23;20150;-56
2021/08/19 06:23:57;;;;;;;12.23;8.70;;;17.30;99.90;;;;;;6243936;22;20171;-59
2021/08/19 06:26:22;;;;;;;12.77;8.97;;;17.40;99.90;;;;;;6244172;23;20155;-56
2021/08/19 06:28:48;;;;;;;10.13;7.90;;;17.60;99.90;;;;;;6243161;23;20211;-58
2021/08/19 06:31:13;;;;;;;11.50;8.33;;;17.80;99.90;;;;;;6243726;23;20198;-56
2021/08/19 06:33:39;;;;;;;10.63;7.80;;;17.80;99.90;;;;;;6243867;22;20222;-56
2021/08/19 06:36:07;;;;;;;10.30;8.00;;;17.80;99.90;;;;;;6243689;23;20254;-58
2021/08/19 06:38:32;;;;;;;10.37;8.13;;;17.90;99.90;;;;;;6243341;23;20492;-54
2021/08/19 06:40:58;;;;;;;12.33;9.53;;;18.10;99.90;;;;;;6243319;23;20151;-58
2021/08/19 06:43:24;;;;;;;10.47;8.47;;;18.00;99.90;;;;;;6243642;22;20172;-58
2021/08/19 06:45:50;;;;;;;11.63;8.33;;;18.00;99.90;;;;;;6243761;22;20208;-57
2021/08/19 06:48:15;;;;;;;10.40;7.87;;;18.10;99.90;;;;;;6243726;23;20158;-57
2021/08/19 06:50:41;;;;;;;10.53;8.07;;;18.00;99.90;;;;;;6243153;23;20180;-59
2021/08/19 06:53:07;;;;;;;12.93;10.10;;;17.90;99.90;;;;;;6243419;22;20185;-59
2021/08/19 06:55:33;;;;;;;10.63;8.20;;;18.00;99.90;;;;;;6243569;23;20221;-56
2021/08/19 06:57:58;;;;;;;9.63;7.77;;;18.10;99.90;;;;;;6243697;23;20151;-58
2021/08/19 07:00:24;;;;;;;10.43;7.50;;;18.10;99.90;;;;;;6242849;23;20232;-56
2021/08/19 07:02:49;;;;;;;12.40;9.10;;;18.20;99.90;;;;;;6243478;22;20224;-58
2021/08/19 07:05:15;;;;;;;9.33;8.20;;;18.50;99.90;;;;;;6243539;23;20157;-56
2021/08/19 07:07:41;;;;;;;10.13;8.03;;;18.60;99.90;;;;;;6243584;23;20150;-57
2021/08/19 07:10:08;;;;;;;9.70;7.83;;;18.70;99.90;;;;;;6242596;23;20151;-59
2021/08/19 07:12:35;;;;;;;12.27;8.60;;;18.90;99.90;;;;;;6243368;22;20656;-58
2021/08/19 07:15:00;;;;;;;10.83;8.57;;;19.00;99.90;;;;;;6243479;23;20182;-56
2021/08/19 07:17:26;;;;;;;11.87;8.43;;;19.00;99.90;;;;;;6243601;23;20151;-58
2021/08/19 07:19:51;;;;;;;10.80;8.73;;;19.00;99.90;;;;;;6242525;23;20143;-56
2021/08/19 07:22:17;;;;;;;10.07;8.33;;;19.10;99.90;;;;;;6242946;22;20212;-57
2021/08/19 07:24:43;;;;;;;12.57;9.20;;;19.20;99.90;;;;;;6240735;23;20173;-58
2021/08/19 07:27:09;;;;;;;10.93;8.83;;;19.30;99.90;;;;;;6242454;23;20432;-54
2021/08/19 07:29:35;;;;;;;9.60;8.37;;;19.40;99.90;;;;;;6241523;23;20168;-57
2021/08/19 07:32:01;;;;;;;10.67;8.27;;;19.40;99.90;;;;;;6243840;22;20166;-58
2021/08/19 07:34:27;;;;;;;12.90;8.90;;;19.50;99.90;;;;;;6243087;23;20154;-59
2021/08/19 07:36:52;;;;;;;11.33;8.33;;;19.30;99.90;;;;;;6241886;23;20174;-57
2021/08/19 07:39:18;;;;;;;12.97;8.77;;;19.60;99.90;;;;;;6241640;23;20150;-59
2021/08/19 07:41:43;;;;;;;12.03;9.00;;;19.60;99.90;;;;;;6243260;22;20205;-56
2021/08/19 07:44:09;;;;;;;9.70;7.97;;;19.60;99.90;;;;;;6243370;23;20147;-56
2021/08/19 07:46:34;;;;;;;10.60;8.17;;;19.50;99.90;;;;;;6243274;23;20155;-58
2021/08/19 07:49:02;;;;;;;9.73;8.30;;;19.50;99.90;;;;;;6242433;23;20496;-57
2021/08/19 07:51:30;;;;;;;12.43;8.63;;;19.40;99.90;;;;;;6242858;23;20594;-59
2021/08/19 07:53:56;;;;;;;9.40;7.87;;;19.50;99.90;;;;;;6242914;22;20205;-57
2021/08/19 07:56:21;;;;;;;9.30;7.93;;;19.50;99.90;;;;;;6243385;23;20560;-57
2021/08/19 07:58:47;;;;;;;9.97;7.80;;;19.60;99.90;;;;;;6242467;23;20212;-58
2021/08/19 08:01:13;;;;;;;9.87;8.00;;;19.80;99.90;;;;;;6243476;23;20150;-59
2021/08/19 08:03:38;;;;;;;7.97;7.17;;;20.10;99.90;;;;;;6243333;22;20242;-59
2021/08/19 08:06:04;;;;;;;10.20;7.28;;;20.20;99.90;;;;;;6241838;23;20166;-59
2021/08/19 08:08:29;;;;;;;8.18;6.38;;;20.30;99.90;;;;;;6242777;23;20151;-59
2021/08/19 08:10:55;;;;;;;8.90;7.25;;;20.50;99.90;;;;;;6243200;23;20151;-57
2021/08/19 08:13:20;;;;;;;9.60;6.78;;;20.50;99.90;;;;;;6243222;22;20174;-57
2021/08/19 08:15:48;;;;;;;7.72;6.20;;;20.20;99.90;;;;;;6243066;23;20174;-57
2021/08/19 08:18:16;;;;;;;6.80;5.70;;;20.00;99.90;;;;;;6243028;23;20147;-57
2021/08/19 08:20:42;;;;;;;7.30;5.97;;;19.80;99.90;;;;;;6242544;23;20148;-54
2021/08/19 08:23:07;;;;;;;6.07;5.40;;;19.70;99.90;;;;;;6243222;22;20169;-57
2021/08/19 08:25:34;;;;;;;8.13;5.68;;;19.40;99.90;;;;;;6242931;23;20158;-56
2021/08/19 08:28:14;;;;;;;8.10;5.37;;;19.40;99.90;;;;;;6242894;23;20178;-59
2021/08/19 08:30:45;;;;;;;5.97;5.17;;;19.60;99.90;;;;;;6242069;23;20138;-59
2021/08/19 08:33:14;;;;;;;5.00;4.50;;;19.70;99.90;;;;;;6243180;22;20337;-58
2021/08/19 08:35:40;;;;;;;5.43;4.70;;;19.80;99.90;;;;;;6242585;23;20213;-57
2021/08/19 08:38:13;;;;;;;5.00;4.50;;;20.10;99.90;;;;;;6243144;23;20177;-59
2021/08/19 08:40:41;;;;;;;6.38;5.13;;;20.00;99.90;;;;;;6242283;23;20142;-59
2021/08/19 08:43:07;;;;;;;5.00;4.10;;;19.90;99.90;;;;;;6243028;22;20506;-59
2021/08/19 08:45:35;;;;;;;5.53;4.32;;;19.80;99.90;;;;;;6242797;23;20602;-57
2021/08/19 08:48:08;;;;;;;4.75;4.05;;;19.80;99.90;;;;;;6242607;23;20151;-59
2021/08/19 08:50:34;;;;;;;4.65;3.58;;;19.90;99.90;;;;;;6241724;23;20178;-59
2021/08/19 08:53:01;;;;;;;4.60;3.63;;;19.90;99.90;;;;;;6242428;22;20268;-57
2021/08/19 08:55:27;;;;;;;5.60;3.50;;;20.10;99.90;;;;;;6242626;23;20170;-57
2021/08/19 08:57:54;;;;;;;3.55;3.25;;;20.20;99.90;;;;;;6242987;23;20519;-57
2021/08/19 09:00:20;;;;;;;3.97;3.53;;;20.60;99.90;;;;;;6241806;23;20152;-57
2021/08/19 09:02:46;;;;;;;3.95;3.10;;;20.90;99.90;;;;;;6242319;22;20172;-59
2021/08/19 09:05:20;;;;;;;5.50;3.33;;;20.90;99.90;;;;;;6242943;23;20159;-57
2021/08/19 09:07:52;;;;;;;3.88;3.10;;;20.80;99.90;;;;;;6242656;23;20516;-56
2021/08/19 09:10:19;;;;;;;4.65;3.30;;;20.90;99.90;;;;;;6241845;23;20453;-58
2021/08/19 09:12:44;;;;;;;4.03;3.25;;;20.90;99.90;;;;;;6242786;22;20194;-59
2021/08/19 09:15:21;;;;;;;3.83;3.38;;;20.90;99.90;;;;;;6242246;23;20180;-56
2021/08/19 09:17:53;;;;;;;3.83;3.38;;;21.10;99.90;;;;;;6242863;23;20217;-58
2021/08/19 09:20:20;;;;;;;4.40;3.70;;;20.90;99.90;;;;;;6239563;23;20150;-53
2021/08/19 09:22:57;;;;;;;3.80;3.50;;;21.00;99.90;;;;;;6241735;22;20513;-57
2021/08/19 09:25:23;;;;;;;2.85;2.60;;;21.20;99.90;;;;;;6241348;23;20225;-56
2021/08/19 09:28:08;;;;;;;3.33;3.03;;;21.40;99.90;;;;;;6242408;23;20179;-57
2021/08/19 09:30:34;;;;;;;3.15;2.80;;;21.70;99.90;;;;;;6240841;23;20147;-58
2021/08/19 09:33:07;;;;;;;2.83;2.22;;;22.00;99.90;;;;;;6242469;22;20177;-57
2021/08/19 09:35:33;;;;;;;2.92;2.72;;;22.20;99.90;;;;;;6242433;23;20232;-57
2021/08/19 09:38:14;;;;;;;3.30;3.00;;;22.10;99.90;;;;;;6242526;23;20147;-54
2021/08/19 09:40:40;;;;;;;2.90;2.70;;;21.70;99.90;;;;;;6242140;23;20150;-57
2021/08/19 09:43:06;;;;;;;3.20;2.95;;;21.50;99.90;;;;;;6242809;22;20170;-59
2021/08/19 09:45:32;;;;;;;2.88;2.67;;;21.30;99.90;;;;;;6242522;23;20158;-59
2021/08/19 09:48:09;;;;;;;3.33;3.03;;;21.00;99.90;;;;;;6241254;23;20158;-57
2021/08/19 09:50:35;;;;;;;2.90;2.70;;;20.80;99.90;;;;;;6241726;23;20607;-57
2021/08/19 09:53:16;;;;;;;3.47;2.83;;;20.80;99.90;;;;;;6242502;22;20192;-56
2021/08/19 09:55:42;;;;;;;3.75;2.72;;;20.90;99.90;;;;;;6242666;23;20604;-56
2021/08/19 09:58:09;;;;;;;3.42;3.13;;;20.70;99.90;;;;;;6242837;23;20485;-58
2021/08/19 10:00:38;;;;;;;3.45;2.88;;;20.80;99.90;;;;;;6242554;23;20176;-58
2021/08/19 10:03:04;;;;;;;3.78;3.47;;;20.70;99.90;;;;;;6243187;22;20179;-58
2021/08/19 10:05:30;;;;;;;3.67;3.38;;;20.80;99.90;;;;;;6242624;23;20236;-56
2021/08/19 10:07:58;;;;;;;3.70;3.40;;;20.90;99.90;;;;;;6242730;23;20204;-53
2021/08/19 10:10:26;;;;;;;3.03;2.80;;;20.90;99.90;;;;;;6242805;22;20165;-57
2021/08/19 10:12:52;;;;;;;4.03;3.63;;;21.30;99.90;;;;;;6242437;22;20674;-59
2021/08/19 10:15:20;;;;;;;3.30;3.05;;;21.30;99.90;;;;;;6243675;23;20184;-58
2021/08/19 10:17:49;;;;;;;3.80;3.42;;;21.10;99.90;;;;;;6244423;23;20226;-59
2021/08/19 10:20:29;;;;;;;3.42;3.13;;;20.90;99.90;;;;;;6244018;23;20588;-58
2021/08/19 10:22:57;;;;;;;3.35;3.10;;;20.90;99.90;;;;;;6244737;22;20492;-60
2021/08/19 10:25:25;;;;;;;3.30;3.00;;;20.70;99.90;;;;;;6244471;23;20497;-57
2021/08/19 10:28:20;;;;;;;3.10;2.80;;;20.80;99.90;;;;;;6244631;23;20240;-59
2021/08/19 10:30:58;;;;;;;3.17;2.88;;;21.00;99.90;;;;;;6244095;23;20238;-59
2021/08/19 10:33:35;;;;;;;6.05;3.03;;;21.20;99.90;;;;;;6244575;22;20532;-59
2021/08/19 10:36:10;;;;;;;2.90;2.65;;;21.60;99.90;;;;;;6244042;23;20178;-59
2021/08/19 10:38:40;;;;;;;2.08;1.98;;;21.80;99.90;;;;;;6243937;23;20200;-58
2021/08/19 10:41:30;;;;;;;2.83;2.63;;;22.10;99.90;;;;;;6244820;23;20462;-60
2021/08/19 10:44:08;;;;;;;2.60;2.40;;;22.20;99.90;;;;;;6244359;22;20174;-59
2021/08/19 10:46:45;;;;;;;2.78;2.58;;;22.00;99.90;;;;;;6244566;23;20481;-58
2021/08/19 10:49:32;;;;;;;2.50;2.30;;;22.00;99.90;;;;;;6243983;23;20139;-60
2021/08/19 10:52:09;;;;;;;3.00;2.50;;;22.00;99.90;;;;;;6244237;22;20186;-60
2021/08/19 10:54:38;;;;;;;2.25;2.05;;;22.40;99.90;;;;;;6244643;23;20147;-60
2021/08/19 10:57:30;;;;;;;2.10;1.90;;;22.70;99.90;;;;;;6244308;23;20182;-60
2021/08/19 10:59:56;;;;;;;2.08;1.90;;;22.60;99.90;;;;;;6244181;23;20478;-60
2021/08/19 11:02:38;;;;;;;3.25;2.10;;;22.30;99.90;;;;;;6243622;22;20166;-60
2021/08/19 11:05:05;;;;;;;2.53;2.33;;;22.30;99.90;;;;;;6244139;23;20143;-60
2021/08/19 11:07:52;;;;;;;2.42;2.28;;;22.50;99.90;;;;;;6243679;23;20151;-59
2021/08/19 11:10:30;;;;;;;2.53;2.33;;;22.40;99.90;;;;;;6243473;23;20601;-60
2021/08/19 11:13:03;;;;;;;1.95;1.80;;;22.50;99.90;;;;;;6239636;22;20177;-58
2021/08/19 11:15:30;;;;;;;2.03;1.85;;;22.80;99.90;;;;;;6243155;23;20166;-60
2021/08/19 11:17:58;;;;;;;2.00;1.88;;;22.90;99.90;;;;;;6242868;23;20646;-59
2021/08/19 11:20:30;;;;;;;1.88;1.77;;;22.80;99.90;;;;;;6242468;23;20151;-60
2021/08/19 11:23:10;;;;;;;1.80;1.70;;;23.20;99.90;;;;;;6243222;22;20167;-60
2021/08/19 11:25:42;;;;;;;1.70;1.60;;;23.80;99.90;;;;;;6243208;23;20143;-58
2021/08/19 11:28:18;;;;;;;2.10;1.90;;;23.90;99.90;;;;;;6243275;23;20139;-59
2021/08/19 11:30:51;;;;;;;1.60;1.50;;;24.10;99.90;;;;;;6242433;23;20146;-59
2021/08/19 11:33:17;;;;;;;1.77;1.58;;;24.20;99.90;;;;;;6243381;22;20174;-60
2021/08/19 11:35:49;;;;;;;3.17;1.80;;;24.40;99.90;;;;;;6243557;23;20170;-59
2021/08/19 11:38:20;;;;;;;2.20;2.00;;;24.40;99.90;;;;;;6243767;23;20135;-60
2021/08/19 11:40:48;;;;;;;1.73;1.63;;;24.10;99.90;;;;;;6243340;23;20143;-58
2021/08/19 11:43:21;;;;;;;1.67;1.58;;;23.80;99.90;;;;;;6243646;22;20166;-58
2021/08/19 11:45:53;;;;;;;1.80;1.70;;;24.00;99.90;;;;;;6243416;23;20146;-57
2021/08/19 11:48:21;;;;;;;1.50;1.40;;;24.40;99.90;;;;;;6243961;23;20146;-60
2021/08/19 11:50:54;;;;;;;1.70;1.60;;;24.80;99.90;;;;;;6243107;23;20190;-60
2021/08/19 11:53:21;;;;;;;1.58;1.48;;;24.70;99.90;;;;;;6243436;22;20189;-60
2021/08/19 11:55:47;;;;;;;2.13;1.50;;;24.40;99.90;;;;;;6243678;23;20233;-59
2021/08/19 11:58:25;;;;;;;1.60;1.50;;;23.70;99.90;;;;;;6243640;23;20477;-60
2021/08/19 12:01:11;;;;;;;1.52;1.42;;;23.30;99.90;;;;;;6243832;23;20138;-60
2021/08/19 12:03:41;;;;;;;1.60;1.50;;;23.30;99.90;;;;;;6243443;22;20167;-60
2021/08/19 12:06:11;;;;;;;2.45;1.77;;;23.30;99.90;;;;;;6243400;23;20150;-59
2021/08/19 12:09:06;;;;;;;1.67;1.35;;;23.30;99.90;;;;;;6243480;23;20178;-60
2021/08/19 12:11:38;;;;;;;2.60;1.92;;;23.20;99.90;;;;;;6240270;23;20193;-60
2021/08/19 12:14:06;;;;;;;1.50;1.40;;;23.10;99.90;;;;;;6243800;23;20173;-60
2021/08/19 12:16:32;;;;;;;1.60;1.50;;;23.30;99.90;;;;;;6243197;23;20174;-60
2021/08/19 12:19:12;;;;;;;1.65;1.30;;;23.50;99.90;;;;;;6243368;23;20181;-60
2021/08/19 12:22:02;;;;;;;1.55;1.30;;;24.00;99.90;;;;;;6243744;23;20200;-60
2021/08/19 12:24:40;;;;;;;1.17;1.10;;;24.30;99.90;;;;;;6235095;23;20154;-60
2021/08/19 12:27:07;;;;;;;1.60;1.50;;;24.50;99.90;;;;;;6243211;23;20163;-60
2021/08/19 12:29:36;;;;;;;1.95;1.60;;;24.00;99.90;;;;;;6243424;23;20250;-60
2021/08/19 12:32:02;;;;;;;1.70;1.55;;;23.80;99.90;;;;;;6243256;22;20177;-60
2021/08/19 12:34:29;;;;;;;1.52;1.42;;;23.50;99.90;;;;;;6243635;23;20262;-60
2021/08/19 12:37:06;;;;;;;2.42;1.77;;;23.50;99.90;;;;;;6243564;23;20454;-59
2021/08/19 12:39:35;;;;;;;1.38;1.27;;;23.40;99.90;;;;;;6243358;23;20253;-60
2021/08/19 12:42:09;;;;;;;1.10;1.10;;;23.50;99.90;;;;;;6243409;22;20616;-60
2021/08/19 12:44:36;;;;;;;1.38;1.27;;;24.20;99.90;;;;;;6243600;23;20474;-60